createdAt,value
2018-06-13T00:02:17.316Z,20.10
2018-06-13T00:04:45.493Z,18.80
2018-06-13T00:07:13.667Z,18.20
2018-06-13T00:09:41.904Z,19.43
2018-06-13T00:12:10.073Z,19.60
2018-06-13T00:14:38.236Z,18.83
2018-06-13T00:17:06.438Z,16.97
2018-06-13T00:19:34.628Z,19.30
2018-06-13T00:22:02.845Z,17.33
2018-06-13T00:24:31.001Z,18.90
2018-06-13T00:26:59.144Z,18.13
2018-06-13T00:29:27.352Z,17.20
2018-06-13T00:31:55.537Z,16.97
2018-06-13T00:34:23.700Z,17.23
2018-06-13T00:36:51.928Z,17.97
2018-06-13T00:39:20.064Z,17.47
2018-06-13T00:41:48.251Z,17.17
2018-06-13T00:44:16.414Z,15.43
2018-06-13T00:46:44.588Z,16.90
2018-06-13T00:49:12.759Z,18.03
2018-06-13T00:51:40.948Z,18.37
2018-06-13T00:54:09.144Z,18.13
2018-06-13T00:56:37.342Z,17.60
2018-06-13T00:59:05.544Z,16.67
2018-06-13T01:01:33.717Z,15.97
2018-06-13T01:04:01.911Z,16.93
2018-06-13T01:06:30.072Z,17.27
2018-06-13T01:08:58.233Z,17.27
2018-06-13T01:11:26.421Z,17.10
2018-06-13T01:13:54.593Z,16.60
2018-06-13T01:16:22.802Z,17.87
2018-06-13T01:18:50.965Z,16.70
2018-06-13T01:21:19.216Z,16.57
2018-06-13T01:23:47.396Z,15.07
2018-06-13T01:26:15.785Z,15.37
2018-06-13T01:28:43.968Z,17.17
2018-06-13T01:31:12.141Z,17.27
2018-06-13T01:33:40.324Z,16.43
2018-06-13T01:36:08.532Z,14.83
2018-06-13T01:38:36.708Z,14.83
2018-06-13T01:41:04.863Z,14.00
2018-06-13T01:43:33.081Z,15.03
2018-06-13T01:46:01.292Z,15.07
2018-06-13T01:48:29.474Z,16.13
2018-06-13T01:50:58.503Z,15.90
2018-06-13T01:53:28.168Z,16.67
2018-06-13T01:55:56.328Z,17.03
2018-06-13T01:58:24.513Z,15.47
2018-06-13T02:00:52.715Z,18.47
2018-06-13T02:03:20.893Z,17.37
2018-06-13T02:05:49.072Z,16.80
2018-06-13T02:08:17.280Z,17.50
2018-06-13T02:10:45.435Z,18.17
2018-06-13T02:13:13.608Z,18.47
2018-06-13T02:15:41.780Z,17.13
2018-06-13T02:18:09.980Z,18.63
2018-06-13T02:20:38.212Z,19.03
2018-06-13T02:23:06.396Z,17.67
2018-06-13T02:25:34.588Z,17.20
2018-06-13T02:28:02.768Z,17.37
2018-06-13T02:30:30.954Z,16.80
2018-06-13T02:32:59.197Z,19.13
2018-06-13T02:35:27.349Z,17.47
2018-06-13T02:37:55.537Z,19.60
2018-06-13T02:40:23.710Z,16.83
2018-06-13T02:42:51.901Z,15.97
2018-06-13T02:45:20.089Z,15.47
2018-06-13T02:47:48.269Z,15.63
2018-06-13T02:50:16.669Z,17.97
2018-06-13T02:52:44.899Z,17.90
2018-06-13T02:55:13.076Z,17.90
2018-06-13T02:57:41.279Z,17.53
2018-06-13T03:00:09.461Z,17.07
2018-06-13T03:02:37.636Z,15.97
2018-06-13T03:05:05.838Z,16.13
2018-06-13T03:07:34.013Z,16.13
2018-06-13T03:10:02.184Z,15.13
2018-06-13T03:12:30.375Z,17.27
2018-06-13T03:14:58.529Z,15.30
2018-06-13T03:17:26.734Z,16.30
2018-06-13T03:19:54.902Z,16.17
2018-06-13T03:22:22.859Z,16.80
2018-06-13T03:24:51.027Z,16.73
2018-06-13T03:27:19.225Z,16.43
2018-06-13T03:29:47.405Z,18.30
2018-06-13T03:32:15.968Z,16.53
2018-06-13T03:34:43.884Z,18.17
2018-06-13T03:37:12.049Z,16.63
2018-06-13T03:39:40.216Z,15.73
2018-06-13T03:42:08.388Z,15.50
2018-06-13T03:44:36.575Z,17.77
2018-06-13T03:47:04.741Z,17.93
2018-06-13T03:49:32.916Z,16.53
2018-06-13T03:52:01.088Z,15.60
2018-06-13T03:54:29.319Z,15.50
2018-06-13T03:56:57.513Z,17.30
2018-06-13T03:59:25.690Z,16.87
2018-06-13T04:01:53.864Z,15.73
2018-06-13T04:04:22.028Z,15.07
2018-06-13T04:06:50.229Z,14.83
2018-06-13T04:09:18.387Z,15.03
2018-06-13T04:11:46.616Z,16.10
2018-06-13T04:14:14.952Z,15.63
2018-06-13T04:16:43.200Z,14.20
2018-06-13T04:19:11.379Z,13.40
2018-06-13T04:21:39.568Z,14.60
2018-06-13T04:24:07.751Z,14.80
2018-06-13T04:26:35.937Z,14.43
2018-06-13T04:29:04.110Z,15.03
2018-06-13T04:31:32.387Z,13.97
2018-06-13T04:34:00.560Z,13.97
2018-06-13T04:36:28.741Z,17.03
2018-06-13T04:38:56.668Z,15.27
2018-06-13T04:41:24.849Z,15.07
2018-06-13T04:43:53.009Z,14.60
2018-06-13T04:46:21.228Z,15.17
2018-06-13T04:48:49.408Z,15.63
2018-06-13T04:51:17.592Z,14.30
2018-06-13T04:53:45.728Z,15.63
2018-06-13T04:56:13.916Z,14.40
2018-06-13T04:58:46.446Z,15.43
2018-06-13T05:01:14.609Z,14.00
2018-06-13T05:03:42.928Z,15.20
2018-06-13T05:06:11.108Z,16.43
2018-06-13T05:08:39.424Z,15.33
2018-06-13T05:11:07.569Z,15.87
2018-06-13T05:13:35.732Z,16.77
2018-06-13T05:16:03.877Z,14.80
2018-06-13T05:18:32.201Z,14.07
2018-06-13T05:21:00.505Z,15.53
2018-06-13T05:23:28.704Z,14.27
2018-06-13T05:25:56.874Z,16.13
2018-06-13T05:28:24.797Z,14.57
2018-06-13T05:30:52.982Z,15.00
2018-06-13T05:33:21.189Z,16.07
2018-06-13T05:35:49.368Z,14.03
2018-06-13T05:38:17.778Z,14.57
2018-06-13T05:40:45.952Z,14.90
2018-06-13T05:43:14.264Z,14.93
2018-06-13T05:45:42.435Z,14.50
2018-06-13T05:48:10.629Z,15.13
2018-06-13T05:50:38.834Z,15.27
2018-06-13T05:53:07.095Z,14.50
2018-06-13T05:55:35.347Z,13.40
2018-06-13T05:58:03.656Z,14.30
2018-06-13T06:00:31.816Z,16.33
2018-06-13T06:02:59.982Z,15.43
2018-06-13T06:05:28.135Z,14.30
2018-06-13T06:07:56.321Z,17.23
2018-06-13T06:12:59.051Z,15.13
2018-06-13T06:15:27.224Z,14.10
2018-06-13T06:17:55.441Z,16.53
2018-06-13T06:20:23.602Z,14.23
2018-06-13T06:22:51.561Z,14.87
2018-06-13T06:25:19.794Z,13.93
2018-06-13T06:27:47.977Z,15.27
2018-06-13T06:30:16.439Z,12.77
2018-06-13T06:32:44.618Z,14.03
2018-06-13T06:35:12.793Z,14.67
2018-06-13T06:37:40.965Z,16.63
2018-06-13T06:40:09.170Z,13.93
2018-06-13T06:42:37.336Z,14.50
2018-06-13T06:45:05.536Z,13.00
2018-06-13T06:47:33.709Z,14.20
2018-06-13T06:50:01.636Z,14.57
2018-06-13T06:52:29.804Z,14.20
2018-06-13T06:54:58.092Z,14.47
2018-06-13T06:57:26.272Z,15.20
2018-06-13T06:59:54.468Z,14.40
2018-06-13T07:02:22.651Z,14.97
2018-06-13T07:04:50.833Z,17.20
2018-06-13T07:07:19.088Z,14.33
2018-06-13T07:09:47.277Z,13.17
2018-06-13T07:12:15.439Z,14.03
2018-06-13T07:14:43.616Z,15.73
2018-06-13T07:17:11.850Z,14.47
2018-06-13T07:19:40.031Z,13.77
2018-06-13T07:22:08.182Z,14.00
2018-06-13T07:24:36.368Z,13.43
2018-06-13T07:27:04.722Z,14.40
2018-06-13T07:29:32.877Z,12.63
2018-06-13T07:32:01.096Z,15.13
2018-06-13T07:34:29.359Z,12.60
2018-06-13T07:36:57.534Z,13.23
2018-06-13T07:39:25.707Z,12.03
2018-06-13T07:41:53.861Z,10.80
2018-06-13T07:44:22.013Z,10.43
2018-06-13T07:46:50.188Z,12.60
2018-06-13T07:49:18.364Z,12.60
2018-06-13T07:51:46.550Z,9.63
2018-06-13T07:54:14.740Z,10.50
2018-06-13T07:56:42.885Z,9.80
2018-06-13T07:59:11.126Z,10.57
2018-06-13T08:01:39.279Z,9.53
2018-06-13T08:04:07.425Z,9.50
2018-06-13T08:06:35.632Z,10.57
2018-06-13T08:09:05.589Z,9.53
2018-06-13T08:11:33.748Z,9.87
2018-06-13T08:14:01.897Z,9.87
2018-06-13T08:16:30.065Z,9.97
2018-06-13T08:18:58.222Z,9.23
2018-06-13T08:21:26.360Z,9.80
2018-06-13T08:23:54.316Z,10.87
2018-06-13T08:34:42.907Z,11.13
2018-06-13T08:37:11.104Z,10.30
2018-06-13T08:39:39.288Z,9.47
2018-06-13T08:42:07.457Z,9.37
2018-06-13T08:44:35.630Z,9.77
2018-06-13T08:47:03.804Z,11.90
2018-06-13T08:49:31.952Z,9.33
2018-06-13T08:52:00.198Z,9.83
2018-06-13T08:54:28.359Z,8.43
2018-06-13T08:56:56.513Z,9.23
2018-06-13T08:59:24.714Z,9.23
2018-06-13T09:01:52.900Z,9.57
2018-06-13T09:04:21.077Z,11.17
2018-06-13T09:06:49.261Z,10.53
2018-06-13T09:09:17.425Z,9.10
2018-06-13T09:11:45.591Z,9.53
2018-06-13T09:14:13.760Z,9.83
2018-06-13T09:16:41.928Z,9.33
2018-06-13T09:19:10.113Z,9.43
2018-06-13T09:21:38.256Z,10.10
2018-06-13T09:24:06.416Z,9.33
2018-06-13T09:26:34.574Z,9.80
2018-06-13T09:29:02.732Z,8.93
2018-06-13T09:31:30.890Z,9.80
2018-06-13T09:33:59.083Z,9.77
2018-06-13T09:36:27.243Z,9.97
2018-06-13T09:38:55.411Z,11.50
2018-06-13T09:41:23.607Z,8.90
2018-06-13T09:43:51.792Z,9.67
2018-06-13T09:46:19.958Z,9.87
2018-06-13T09:48:48.144Z,9.30
2018-06-13T09:51:16.408Z,9.30
2018-06-13T09:53:44.634Z,9.33
2018-06-13T09:56:12.784Z,8.30
2018-06-13T09:58:46.309Z,9.80
2018-06-13T10:01:19.808Z,8.03
2018-06-13T10:03:47.965Z,9.60
2018-06-13T10:06:16.115Z,8.37
2018-06-13T10:08:44.355Z,7.83
2018-06-13T10:11:12.468Z,7.33
2018-06-13T10:13:40.646Z,6.70
2018-06-13T10:16:08.822Z,7.70
2018-06-13T10:18:37.063Z,7.23
2018-06-13T10:21:05.193Z,7.37
2018-06-13T10:23:33.354Z,6.53
2018-06-13T10:26:01.649Z,6.67
2018-06-13T10:28:29.849Z,6.20
2018-06-13T10:30:58.029Z,5.73
2018-06-13T10:33:26.205Z,5.27
2018-06-13T10:35:54.360Z,4.80
2018-06-13T10:38:22.561Z,5.80
2018-06-13T10:40:50.729Z,8.97
2018-06-13T10:43:18.904Z,5.73
2018-06-13T10:45:47.091Z,6.67
2018-06-13T10:48:15.253Z,4.97
2018-06-13T10:50:43.413Z,5.10
2018-06-13T10:53:11.570Z,5.63
2018-06-13T10:55:39.775Z,5.33
2018-06-13T10:58:07.647Z,4.80
2018-06-13T11:00:35.920Z,6.53
2018-06-13T11:03:04.109Z,5.27
2018-06-13T11:05:32.275Z,5.23
2018-06-13T11:08:00.456Z,5.97
2018-06-13T11:10:28.628Z,5.00
2018-06-13T11:12:56.789Z,5.20
2018-06-13T11:15:24.957Z,5.30
2018-06-13T11:17:53.114Z,5.60
2018-06-13T11:20:21.296Z,5.40
2018-06-13T11:22:49.458Z,5.67
2018-06-13T11:25:17.609Z,4.90
2018-06-13T11:27:45.808Z,5.53
2018-06-13T11:30:13.973Z,5.93
2018-06-13T11:32:42.141Z,5.20
2018-06-13T11:35:10.369Z,6.30
2018-06-13T11:37:38.527Z,5.50
2018-06-13T11:40:06.760Z,4.90
2018-06-13T11:42:34.943Z,5.10
2018-06-13T11:45:03.111Z,5.00
2018-06-13T11:47:31.314Z,5.30
2018-06-13T11:49:59.461Z,5.40
2018-06-13T11:52:27.644Z,5.43
2018-06-13T11:54:55.864Z,5.47
2018-06-13T11:57:24.020Z,5.93
2018-06-13T11:59:52.213Z,8.23
2018-06-13T12:02:20.369Z,5.63
2018-06-13T12:04:48.529Z,5.60
2018-06-13T12:07:16.740Z,4.90
2018-06-13T12:09:44.904Z,5.63
2018-06-13T12:12:13.052Z,5.63
2018-06-13T12:14:41.232Z,5.40
2018-06-13T12:17:09.495Z,5.67
2018-06-13T12:19:37.628Z,5.40
2018-06-13T12:22:05.809Z,5.33
2018-06-13T12:24:33.965Z,5.40
2018-06-13T12:27:02.244Z,5.50
2018-06-13T12:29:30.379Z,5.57
2018-06-13T12:31:58.592Z,5.70
2018-06-13T12:34:26.881Z,5.17
2018-06-13T12:36:55.052Z,5.60
2018-06-13T12:39:23.194Z,4.70
2018-06-13T12:41:51.366Z,6.27
2018-06-13T12:44:19.548Z,4.73
2018-06-13T12:46:47.696Z,5.13
2018-06-13T12:49:15.861Z,5.30
2018-06-13T12:51:44.006Z,5.23
2018-06-13T12:54:13.056Z,5.07
2018-06-13T12:56:41.225Z,6.07
2018-06-13T12:59:09.770Z,5.20
2018-06-13T13:01:37.958Z,5.07
2018-06-13T13:04:06.241Z,6.80
2018-06-13T13:06:34.376Z,5.40
2018-06-13T13:09:02.547Z,5.97
2018-06-13T13:11:30.738Z,9.33
2018-06-13T13:13:58.959Z,5.97
2018-06-13T13:16:27.023Z,5.60
2018-06-13T13:18:55.209Z,7.07
2018-06-13T13:21:23.455Z,6.07
2018-06-13T13:23:51.620Z,6.10
2018-06-13T13:26:19.809Z,6.03
2018-06-13T13:28:48.729Z,6.27
2018-06-13T13:31:16.896Z,5.97
2018-06-13T13:33:45.082Z,6.13
2018-06-13T13:36:13.240Z,6.63
2018-06-13T13:38:41.404Z,6.17
2018-06-13T13:41:09.576Z,5.03
2018-06-13T13:43:37.784Z,5.87
2018-06-13T13:46:05.944Z,5.70
2018-06-13T13:48:34.161Z,6.37
2018-06-13T13:51:02.321Z,6.70
2018-06-13T13:53:30.465Z,6.63
2018-06-13T13:55:58.651Z,6.47
2018-06-13T13:58:29.024Z,6.37
2018-06-13T14:01:02.246Z,6.60
2018-06-13T14:03:30.502Z,5.70
2018-06-13T14:05:58.693Z,6.07
2018-06-13T14:08:26.870Z,5.30
2018-06-13T14:10:55.026Z,6.53
2018-06-13T14:13:23.212Z,6.40
2018-06-13T14:15:51.357Z,6.00
2018-06-13T14:18:19.520Z,5.87
2018-06-13T14:20:47.681Z,6.67
2018-06-13T14:23:16.308Z,9.93
2018-06-13T14:25:44.440Z,6.70
2018-06-13T14:28:12.608Z,6.70
2018-06-13T14:30:40.868Z,6.40
2018-06-13T14:33:09.049Z,7.63
2018-06-13T14:35:37.212Z,5.90
2018-06-13T14:38:05.382Z,5.07
2018-06-13T14:40:33.544Z,5.10
2018-06-13T14:43:01.462Z,6.33
2018-06-13T14:45:29.873Z,5.50
2018-06-13T14:47:58.684Z,5.73
2018-06-13T14:50:26.830Z,5.27
2018-06-13T14:52:55.044Z,5.60
2018-06-13T14:55:23.232Z,5.23
2018-06-13T14:57:51.492Z,5.50
2018-06-13T15:00:19.661Z,5.67
2018-06-13T15:02:48.364Z,5.90
2018-06-13T15:05:16.574Z,5.83
2018-06-13T15:07:44.808Z,6.67
2018-06-13T15:10:12.972Z,5.40
2018-06-13T15:12:41.116Z,5.70
2018-06-13T15:15:15.627Z,4.67
2018-06-13T15:17:43.760Z,6.80
2018-06-13T15:20:11.947Z,5.50
2018-06-13T15:22:40.106Z,5.10
2018-06-13T15:25:08.264Z,5.33
2018-06-13T15:27:36.513Z,5.47
2018-06-13T15:30:05.025Z,5.37
2018-06-13T15:32:35.512Z,6.43
2018-06-13T15:35:05.464Z,4.30
2018-06-13T15:37:36.057Z,4.80
2018-06-13T15:40:04.284Z,5.23
2018-06-13T15:42:32.432Z,5.83
2018-06-13T15:45:00.618Z,4.20
2018-06-13T15:47:28.775Z,4.50
2018-06-13T15:49:56.916Z,4.40
2018-06-13T15:52:25.082Z,5.03
2018-06-13T15:54:53.237Z,4.43
2018-06-13T15:57:21.392Z,4.53
2018-06-13T15:59:49.559Z,4.33
2018-06-13T16:02:17.715Z,3.97
2018-06-13T16:04:45.950Z,4.23
2018-06-13T16:07:14.153Z,3.80
2018-06-13T16:09:42.375Z,4.50
2018-06-13T16:12:10.574Z,4.73
2018-06-13T16:14:38.728Z,3.63
2018-06-13T16:17:06.970Z,3.70
2018-06-13T16:19:35.241Z,4.23
2018-06-13T16:22:03.422Z,4.00
2018-06-13T16:24:31.928Z,3.70
2018-06-13T16:27:00.369Z,4.80
2018-06-13T16:29:29.128Z,5.03
2018-06-13T16:31:57.344Z,3.70
2018-06-13T16:34:26.166Z,3.93
2018-06-13T16:36:54.380Z,3.47
2018-06-13T16:39:22.768Z,4.40
2018-06-13T16:41:51.260Z,3.37
2018-06-13T16:44:19.512Z,3.40
2018-06-13T16:46:47.764Z,3.63
2018-06-13T16:49:16.225Z,4.70
2018-06-13T16:51:56.405Z,4.30
2018-06-13T16:54:35.813Z,4.00
2018-06-13T16:57:04.081Z,4.80
2018-06-13T16:59:33.153Z,4.40
2018-06-13T17:02:01.305Z,4.13
2018-06-13T17:04:30.540Z,4.10
2018-06-13T17:06:58.750Z,4.03
2018-06-13T17:09:26.922Z,5.27
2018-06-13T17:11:55.172Z,4.47
2018-06-13T17:14:23.366Z,5.37
2018-06-13T17:16:51.765Z,4.07
2018-06-13T17:19:19.968Z,5.30
2018-06-13T17:21:48.130Z,4.30
2018-06-13T17:24:20.191Z,4.00
2018-06-13T17:26:48.377Z,4.97
2018-06-13T17:29:16.532Z,4.70
2018-06-13T17:31:44.987Z,4.33
2018-06-13T17:34:13.349Z,6.73
2018-06-13T17:36:41.560Z,4.83
2018-06-13T17:39:11.222Z,4.67
2018-06-13T17:41:39.464Z,5.10
2018-06-13T17:44:08.061Z,4.77
2018-06-13T17:46:42.064Z,5.67
2018-06-13T17:49:10.309Z,4.20
2018-06-13T17:51:38.489Z,4.67
2018-06-13T17:54:06.809Z,4.40
2018-06-13T17:56:35.102Z,5.20
2018-06-13T17:59:03.364Z,5.30
2018-06-13T18:01:31.554Z,6.43
2018-06-13T18:03:59.894Z,4.77
2018-06-13T18:06:28.266Z,4.60
2018-06-13T18:08:56.545Z,4.90
2018-06-13T18:11:24.777Z,4.63
2018-06-13T18:13:52.946Z,5.30
2018-06-13T18:16:21.142Z,4.80
2018-06-13T18:18:49.336Z,4.90
2018-06-13T18:21:17.526Z,4.77
2018-06-13T18:23:45.673Z,6.10
2018-06-13T18:26:13.848Z,5.47
2018-06-13T18:28:42.048Z,5.13
2018-06-13T18:31:11.322Z,5.43
2018-06-13T18:33:40.367Z,5.83
2018-06-13T18:36:08.549Z,6.17
2018-06-13T18:38:36.866Z,5.37
2018-06-13T18:41:05.047Z,7.80
2018-06-13T18:43:33.360Z,6.97
2018-06-13T18:46:01.571Z,9.17
2018-06-13T18:48:29.686Z,6.43
2018-06-13T18:50:57.871Z,6.10
2018-06-13T18:53:26.048Z,9.00
2018-06-13T18:55:54.258Z,6.60
2018-06-13T18:58:22.429Z,5.70
2018-06-13T19:00:50.603Z,5.83
2018-06-13T19:03:18.875Z,6.57
2018-06-13T19:05:47.506Z,5.97
2018-06-13T19:08:15.847Z,6.57
2018-06-13T19:10:44.086Z,6.30
2018-06-13T19:13:12.096Z,5.63
2018-06-13T19:15:40.345Z,5.47
2018-06-13T19:18:09.095Z,6.07
2018-06-13T19:20:37.363Z,5.40
2018-06-13T19:23:05.588Z,5.30
2018-06-13T19:25:33.533Z,5.10
2018-06-13T19:28:01.710Z,6.60
2018-06-13T19:30:30.265Z,5.43
2018-06-13T19:32:58.564Z,5.90
2018-06-13T19:35:26.793Z,6.20
2018-06-13T19:37:55.140Z,5.53
2018-06-13T19:40:23.339Z,6.87
2018-06-13T19:42:51.509Z,6.43
2018-06-13T19:45:19.690Z,6.40
2018-06-13T19:47:53.212Z,5.17
2018-06-13T19:50:21.418Z,7.87
2018-06-13T19:52:55.117Z,6.67
2018-06-13T19:55:28.792Z,6.20
2018-06-13T19:57:59.837Z,9.07
2018-06-13T20:00:27.794Z,6.50
2018-06-13T20:03:01.828Z,6.43
2018-06-13T20:05:50.558Z,6.87
2018-06-13T20:08:18.791Z,6.87
2018-06-13T20:10:46.971Z,6.80
2018-06-13T20:13:26.053Z,7.03
2018-06-13T20:15:59.955Z,6.60
2018-06-13T20:18:33.688Z,6.83
2018-06-13T20:21:02.197Z,6.73
2018-06-13T20:23:30.437Z,6.20
2018-06-13T20:26:03.985Z,7.10
2018-06-13T20:28:37.490Z,6.33
2018-06-13T20:31:11.648Z,6.60
2018-06-13T20:33:39.836Z,6.20
2018-06-13T20:36:08.019Z,6.53
2018-06-13T20:38:35.945Z,7.43
2018-06-13T20:41:04.110Z,8.10
2018-06-13T20:43:32.279Z,6.63
2018-06-13T20:46:00.628Z,8.07
2018-06-13T20:48:28.871Z,6.90
2018-06-13T20:50:57.042Z,9.50
2018-06-13T20:53:25.222Z,7.20
2018-06-13T20:55:53.913Z,8.07
2018-06-13T20:58:22.358Z,7.13
2018-06-13T21:00:50.576Z,6.87
2018-06-13T21:03:18.753Z,6.83
2018-06-13T21:05:47.062Z,6.83
2018-06-13T21:08:15.352Z,6.80
2018-06-13T21:10:43.609Z,7.00
2018-06-13T21:13:11.837Z,6.40
2018-06-13T21:15:39.994Z,6.87
2018-06-13T21:18:08.167Z,7.13
2018-06-13T21:20:36.344Z,7.93
2018-06-13T21:23:04.544Z,7.20
2018-06-13T21:25:32.749Z,6.90
2018-06-13T21:28:00.921Z,6.97
2018-06-13T21:30:29.064Z,7.37
2018-06-13T21:32:57.251Z,6.80
2018-06-13T21:35:25.426Z,6.70
2018-06-13T21:37:53.561Z,7.90
2018-06-13T21:40:21.743Z,7.33
2018-06-13T21:42:49.972Z,8.17
2018-06-13T21:45:18.115Z,7.70
2018-06-13T21:47:46.401Z,7.13
2018-06-13T21:50:14.553Z,7.63
2018-06-13T21:52:42.741Z,7.93
2018-06-13T21:55:10.890Z,7.93
2018-06-13T21:57:39.045Z,9.13
2018-06-13T22:00:08.756Z,7.10
2018-06-13T22:02:36.974Z,7.47
2018-06-13T22:05:05.160Z,6.90
2018-06-13T22:07:33.376Z,8.27
2018-06-13T22:10:01.537Z,6.60
2018-06-13T22:12:29.693Z,6.70
2018-06-13T22:14:57.848Z,6.90
2018-06-13T22:17:26.005Z,7.50
2018-06-13T22:19:54.159Z,8.03
2018-06-13T22:22:22.322Z,11.83
2018-06-13T22:24:51.476Z,7.00
2018-06-13T22:27:19.871Z,8.30
2018-06-13T22:29:48.051Z,6.97
2018-06-13T22:32:16.217Z,7.87
2018-06-13T22:34:44.382Z,7.43
2018-06-13T22:37:12.552Z,7.50
2018-06-13T22:39:40.740Z,6.83
2018-06-13T22:42:09.001Z,7.20
2018-06-13T22:44:37.157Z,7.53
2018-06-13T22:47:05.078Z,7.83
2018-06-13T22:49:34.169Z,7.40
2018-06-13T22:52:02.352Z,7.20
2018-06-13T22:54:30.533Z,7.67
2018-06-13T22:56:58.704Z,7.57
2018-06-13T22:59:26.852Z,7.90
2018-06-13T23:01:55.017Z,9.50
2018-06-13T23:04:23.193Z,7.87
2018-06-13T23:06:51.359Z,9.20
2018-06-13T23:09:19.497Z,7.67
2018-06-13T23:11:47.649Z,7.50
2018-06-13T23:14:15.809Z,7.47
2018-06-13T23:16:43.974Z,7.10
2018-06-13T23:19:12.128Z,8.67
2018-06-13T23:21:40.489Z,7.43
2018-06-13T23:24:08.632Z,7.90
2018-06-13T23:26:36.828Z,7.30
2018-06-13T23:29:04.958Z,7.20
2018-06-13T23:31:33.085Z,7.07
2018-06-13T23:34:01.247Z,7.90
2018-06-13T23:36:29.519Z,7.17
2018-06-13T23:38:57.667Z,8.73
2018-06-13T23:41:25.823Z,8.07
2018-06-13T23:43:53.970Z,7.57
2018-06-13T23:46:22.166Z,7.57
2018-06-13T23:48:50.317Z,8.37
2018-06-13T23:51:19.081Z,8.50
2018-06-13T23:53:47.267Z,8.13
2018-06-13T23:56:15.416Z,9.67
2018-06-13T23:58:43.576Z,7.57
